Time;durP1;ratioP1;P1;durP2;ratioP2;P2;SDS_P1;SDS_P2;PMS_P1;PMS_P2;Temp;Humidity;BMP_temperature;BMP_pressure;BME280_temperature;BME280_humidity;BME280_pressure;Samples;Min_cycle;Max_cycle;Signal;HPM_P1;HPM_P2
2023/07/23 00:00:38;;;;;;;3.40;3.13;;;22.70;58.20;;;;;;4969654;28;20206;-71
2023/07/23 00:03:05;;;;;;;3.30;3.00;;;22.70;58.20;;;;;;4985734;28;20280;-71
2023/07/23 00:05:30;;;;;;;3.30;3.05;;;22.70;58.20;;;;;;4969861;28;20289;-71
2023/07/23 00:08:00;;;;;;;3.20;2.90;;;22.70;58.20;;;;;;4973930;28;20207;-72
2023/07/23 00:10:26;;;;;;;2.83;2.63;;;22.70;58.20;;;;;;4974861;28;20271;-71
2023/07/23 00:12:52;;;;;;;3.00;2.80;;;22.70;58.20;;;;;;4974487;28;20400;-71
2023/07/23 00:15:19;;;;;;;3.30;3.00;;;22.70;58.20;;;;;;4974711;28;20582;-72
2023/07/23 00:17:45;;;;;;;3.40;3.10;;;22.70;58.20;;;;;;4963614;28;20260;-71
2023/07/23 00:20:12;;;;;;;3.10;2.80;;;22.70;58.20;;;;;;4974730;28;20338;-71
2023/07/23 00:22:39;;;;;;;3.28;2.97;;;22.70;58.20;;;;;;4974828;28;20201;-71
2023/07/23 00:25:06;;;;;;;3.17;2.88;;;22.70;58.20;;;;;;4974504;28;20213;-71
2023/07/23 00:27:32;;;;;;;2.97;2.67;;;22.60;58.10;;;;;;4970756;28;20256;-71
2023/07/23 00:30:00;;;;;;;3.20;2.90;;;22.60;58.70;;;;;;4979687;28;20280;-71
2023/07/23 00:32:26;;;;;;;2.92;2.72;;;22.60;58.10;;;;;;4963256;28;20193;-71
2023/07/23 00:34:51;;;;;;;2.92;2.65;;;22.60;58.10;;;;;;4969586;28;20308;-71
2023/07/23 00:37:17;;;;;;;3.22;2.92;;;22.70;58.20;;;;;;4978029;28;20213;-71
2023/07/23 00:39:44;;;;;;;3.08;2.88;;;22.70;58.30;;;;;;4987645;28;20181;-71
2023/07/23 00:42:09;;;;;;;2.65;2.45;;;22.70;58.30;;;;;;4971375;28;20185;-72
2023/07/23 00:44:35;;;;;;;3.55;3.25;;;22.60;58.20;;;;;;4978522;28;20212;-71
2023/07/23 00:47:05;;;;;;;3.00;2.75;;;22.60;58.20;;;;;;4971729;28;20265;-71
2023/07/23 00:49:32;;;;;;;3.15;2.85;;;22.70;58.30;;;;;;4974195;28;20189;-71
2023/07/23 00:51:59;;;;;;;2.92;2.72;;;22.60;58.20;;;;;;4967952;28;20186;-71
2023/07/23 00:54:25;;;;;;;3.20;2.90;;;22.70;58.30;;;;;;4968900;28;20240;-71
2023/07/23 00:56:51;;;;;;;2.70;2.50;;;22.60;58.20;;;;;;4976346;28;20182;-71
2023/07/23 00:59:20;;;;;;;3.00;2.70;;;22.60;58.20;;;;;;4971552;28;20190;-72
2023/07/23 01:01:48;;;;;;;2.65;2.45;;;22.60;58.20;;;;;;4972066;28;20177;-72
2023/07/23 01:04:14;;;;;;;2.88;2.63;;;22.60;58.20;;;;;;4964424;28;20230;-71
2023/07/23 01:06:43;;;;;;;3.10;2.80;;;22.60;58.20;;;;;;4965723;28;20742;-71
2023/07/23 01:09:10;;;;;;;3.03;2.75;;;22.60;58.20;;;;;;4983350;28;20193;-71
2023/07/23 01:11:36;;;;;;;3.17;2.90;;;22.60;58.20;;;;;;4983895;28;20180;-71
2023/07/23 01:14:03;;;;;;;2.70;2.50;;;22.60;58.20;;;;;;4989209;28;20217;-72
2023/07/23 01:16:30;;;;;;;2.70;2.50;;;22.60;58.30;;;;;;4984201;28;20205;-71
2023/07/23 01:18:56;;;;;;;2.67;2.47;;;22.60;58.20;;;;;;4962603;28;20279;-71
2023/07/23 01:21:22;;;;;;;2.50;2.30;;;22.60;58.30;;;;;;4971376;28;20204;-72
2023/07/23 01:23:48;;;;;;;2.47;2.28;;;22.60;58.30;;;;;;4973898;28;20209;-72
2023/07/23 01:26:14;;;;;;;2.92;2.72;;;22.50;58.30;;;;;;4974676;28;20192;-71
2023/07/23 01:28:40;;;;;;;2.72;2.53;;;22.60;58.30;;;;;;4973303;28;20177;-71
2023/07/23 01:31:07;;;;;;;2.60;2.40;;;22.60;58.30;;;;;;4979274;28;20622;-72
2023/07/23 01:33:34;;;;;;;2.55;2.35;;;22.60;58.30;;;;;;4966906;28;20213;-72
2023/07/23 01:36:02;;;;;;;2.97;2.78;;;22.60;58.30;;;;;;4989783;28;20322;-71
2023/07/23 01:38:28;;;;;;;2.72;2.53;;;22.60;58.30;;;;;;4994508;28;20216;-74
2023/07/23 01:40:55;;;;;;;2.92;2.72;;;22.60;58.30;;;;;;4964373;28;20193;-73
2023/07/23 01:43:21;;;;;;;2.92;2.72;;;22.50;58.20;;;;;;4974024;28;20212;-73
2023/07/23 01:45:48;;;;;;;2.70;2.50;;;22.50;58.20;;;;;;4972495;28;20216;-71
2023/07/23 01:48:15;;;;;;;2.58;2.38;;;22.50;58.20;;;;;;4982045;28;20224;-71
2023/07/23 01:50:41;;;;;;;2.47;2.28;;;22.60;58.30;;;;;;4970782;28;20200;-72
2023/07/23 01:53:08;;;;;;;2.40;2.20;;;22.50;58.20;;;;;;4970627;28;20190;-71
2023/07/23 01:55:34;;;;;;;2.53;2.33;;;22.60;58.40;;;;;;4990442;28;20301;-71
2023/07/23 01:58:00;;;;;;;2.65;2.45;;;22.50;58.20;;;;;;4969568;28;20189;-71
2023/07/23 02:00:26;;;;;;;2.40;2.20;;;22.60;58.30;;;;;;4973444;28;20635;-71
2023/07/23 02:02:53;;;;;;;2.70;2.50;;;22.60;58.90;;;;;;4980759;28;20268;-71
2023/07/23 02:05:21;;;;;;;2.38;2.17;;;22.60;58.30;;;;;;4959064;28;20830;-71
2023/07/23 02:07:47;;;;;;;2.25;2.08;;;22.50;58.20;;;;;;4972263;28;20185;-71
2023/07/23 02:10:13;;;;;;;2.38;2.17;;;22.50;58.20;;;;;;4986593;28;20181;-71
2023/07/23 02:12:40;;;;;;;2.60;2.30;;;22.50;58.30;;;;;;4954464;28;20195;-72
2023/07/23 02:15:06;;;;;;;2.63;2.42;;;22.50;58.30;;;;;;4973235;28;20244;-71
2023/07/23 02:17:35;;;;;;;2.45;2.25;;;22.50;58.30;;;;;;4981126;28;20193;-70
2023/07/23 02:20:01;;;;;;;2.50;2.30;;;22.50;58.30;;;;;;4997839;28;20189;-71
2023/07/23 02:22:26;;;;;;;2.50;2.30;;;22.50;58.30;;;;;;4985611;28;20197;-71
2023/07/23 02:24:52;;;;;;;2.20;2.00;;;22.50;58.50;;;;;;4975917;28;20312;-72
2023/07/23 02:27:18;;;;;;;2.75;2.20;;;22.50;58.30;;;;;;4971680;28;20188;-72
2023/07/23 02:29:44;;;;;;;2.55;2.35;;;22.50;58.30;;;;;;4996565;28;20245;-71
2023/07/23 02:32:10;;;;;;;2.50;2.30;;;22.50;58.30;;;;;;4976830;28;20185;-71
2023/07/23 02:34:36;;;;;;;2.40;2.20;;;22.50;58.50;;;;;;4977153;28;20217;-71
2023/07/23 02:37:03;;;;;;;2.63;2.42;;;22.50;58.30;;;;;;4974085;28;20195;-72
2023/07/23 02:39:30;;;;;;;2.38;2.17;;;22.50;58.30;;;;;;4984377;28;20564;-72
2023/07/23 02:41:56;;;;;;;2.35;2.15;;;22.50;58.40;;;;;;4975613;28;20190;-71
2023/07/23 02:44:22;;;;;;;1.92;1.83;;;22.50;58.30;;;;;;4969932;28;20693;-71
2023/07/23 02:46:47;;;;;;;2.55;2.35;;;22.50;58.30;;;;;;4967935;28;20200;-71
2023/07/23 02:49:13;;;;;;;2.63;2.42;;;22.50;58.40;;;;;;4968784;28;20284;-71
2023/07/23 02:51:40;;;;;;;2.50;2.30;;;22.50;58.30;;;;;;4985350;28;20190;-71
2023/07/23 02:54:08;;;;;;;2.40;2.20;;;22.50;58.30;;;;;;4964922;28;20224;-71
2023/07/23 02:56:35;;;;;;;2.30;2.10;;;22.50;58.40;;;;;;4995468;28;20222;-72
2023/07/23 02:59:03;;;;;;;2.50;2.20;;;22.50;58.30;;;;;;4972739;28;20189;-72
2023/07/23 03:01:30;;;;;;;2.47;2.28;;;22.50;58.40;;;;;;4973031;28;20221;-71
2023/07/23 03:03:56;;;;;;;2.50;2.30;;;22.50;58.40;;;;;;4970060;28;20221;-71
2023/07/23 03:06:22;;;;;;;2.55;2.35;;;22.50;58.40;;;;;;4964765;28;20204;-71
2023/07/23 03:08:48;;;;;;;2.17;2.00;;;22.50;58.40;;;;;;4964663;28;20192;-71
2023/07/23 03:11:14;;;;;;;2.22;2.03;;;22.50;58.40;;;;;;4976323;28;20193;-71
2023/07/23 03:13:41;;;;;;;2.60;2.08;;;22.50;58.40;;;;;;4981013;28;20201;-73
2023/07/23 03:16:09;;;;;;;2.17;1.98;;;22.50;58.40;;;;;;4984285;28;20196;-74
2023/07/23 03:18:35;;;;;;;2.80;2.40;;;22.50;58.40;;;;;;4983740;28;20197;-73
2023/07/23 03:21:01;;;;;;;2.40;2.20;;;22.40;58.30;;;;;;4972869;28;20198;-71
2023/07/23 03:23:26;;;;;;;2.88;2.35;;;22.50;58.40;;;;;;4969086;28;20213;-72
2023/07/23 03:25:53;;;;;;;2.50;2.30;;;22.40;58.30;;;;;;4988030;28;20189;-71
2023/07/23 03:28:18;;;;;;;2.17;2.03;;;22.40;58.30;;;;;;4991449;28;20271;-71
2023/07/23 03:30:44;;;;;;;2.00;1.90;;;22.50;58.40;;;;;;4988699;28;20190;-71
2023/07/23 03:33:10;;;;;;;2.25;2.13;;;22.50;58.40;;;;;;4999042;28;20244;-71
2023/07/23 03:35:36;;;;;;;2.17;2.08;;;22.50;58.40;;;;;;4975580;28;20223;-70
2023/07/23 03:38:02;;;;;;;2.20;2.00;;;22.50;58.40;;;;;;4975288;28;20197;-71
2023/07/23 03:40:27;;;;;;;2.08;1.98;;;22.40;58.40;;;;;;4972580;28;20268;-72
2023/07/23 03:42:53;;;;;;;2.00;1.90;;;22.40;58.30;;;;;;4988455;28;20640;-71
2023/07/23 03:45:19;;;;;;;2.13;1.92;;;22.40;58.30;;;;;;4975138;28;20216;-71
2023/07/23 03:47:45;;;;;;;2.10;2.00;;;22.40;58.30;;;;;;4987302;28;20189;-73
2023/07/23 03:50:11;;;;;;;2.30;2.10;;;22.40;58.40;;;;;;4991478;28;20192;-73
2023/07/23 03:52:36;;;;;;;2.50;2.30;;;22.40;58.40;;;;;;4992220;28;20200;-73
2023/07/23 03:55:03;;;;;;;2.30;2.10;;;22.40;58.40;;;;;;4983727;28;20226;-74
2023/07/23 03:57:29;;;;;;;2.10;2.00;;;22.40;58.40;;;;;;4975205;28;20181;-74
2023/07/23 03:59:55;;;;;;;2.10;2.00;;;22.40;58.30;;;;;;4975489;28;20207;-73
2023/07/23 04:02:20;;;;;;;2.08;1.90;;;22.40;58.40;;;;;;4975764;28;20280;-74
2023/07/23 04:04:46;;;;;;;2.05;1.92;;;22.40;58.40;;;;;;4987769;28;20206;-74
2023/07/23 04:07:12;;;;;;;2.05;1.92;;;22.40;58.40;;;;;;4971811;28;20193;-73
2023/07/23 04:09:38;;;;;;;1.95;1.85;;;22.40;58.40;;;;;;4970019;28;20224;-73
2023/07/23 04:12:09;;;;;;;2.63;2.30;;;22.40;58.30;;;;;;4974217;28;20678;-73
2023/07/23 04:14:42;;;;;;;2.30;2.10;;;22.40;58.40;;;;;;4975018;28;20276;-74
2023/07/23 04:17:11;;;;;;;2.25;2.05;;;22.40;58.30;;;;;;4982719;28;20194;-74
2023/07/23 04:19:37;;;;;;;2.22;2.03;;;22.40;58.40;;;;;;4974922;28;20185;-71
2023/07/23 04:22:03;;;;;;;2.08;1.92;;;22.40;58.40;;;;;;4975061;28;20251;-71
2023/07/23 04:24:30;;;;;;;2.35;2.15;;;22.40;58.40;;;;;;4990305;28;20251;-71
2023/07/23 04:26:56;;;;;;;1.92;1.83;;;22.40;58.40;;;;;;4970594;28;20204;-70
2023/07/23 04:29:21;;;;;;;2.17;1.98;;;22.40;58.40;;;;;;4970199;28;20186;-71
2023/07/23 04:31:47;;;;;;;2.17;1.98;;;22.40;58.40;;;;;;4956009;28;20268;-71
2023/07/23 04:34:13;;;;;;;2.20;2.10;;;22.40;58.40;;;;;;4956090;28;20225;-71
2023/07/23 04:36:39;;;;;;;2.15;1.95;;;22.40;58.50;;;;;;4954554;28;20181;-71
2023/07/23 04:39:05;;;;;;;1.92;1.83;;;22.40;58.40;;;;;;4955468;28;20196;-72
2023/07/23 04:41:31;;;;;;;1.95;1.85;;;22.40;58.40;;;;;;4955822;28;20182;-71
2023/07/23 04:43:57;;;;;;;2.28;2.08;;;22.40;58.50;;;;;;4958104;28;20720;-71
2023/07/23 04:46:23;;;;;;;2.13;2.00;;;22.40;58.40;;;;;;4982761;28;20268;-71
2023/07/23 04:48:49;;;;;;;2.28;2.00;;;22.40;58.50;;;;;;4975604;28;20311;-72
2023/07/23 04:51:15;;;;;;;2.13;1.90;;;22.40;58.50;;;;;;4982083;28;20272;-71
2023/07/23 04:53:40;;;;;;;1.70;1.60;;;22.40;58.60;;;;;;4993600;28;20302;-71
2023/07/23 04:56:06;;;;;;;2.05;1.95;;;22.40;58.50;;;;;;4983644;28;20189;-71
2023/07/23 04:58:32;;;;;;;2.33;2.00;;;22.40;58.50;;;;;;4996200;28;20184;-72
2023/07/23 05:01:07;;;;;;;1.83;1.73;;;22.40;58.50;;;;;;4986090;28;20339;-72
2023/07/23 05:03:32;;;;;;;2.30;2.10;;;22.30;58.50;;;;;;4964806;28;20200;-74
2023/07/23 05:06:08;;;;;;;2.00;1.90;;;22.40;58.60;;;;;;4955525;28;20197;-73
2023/07/23 05:08:35;;;;;;;1.95;1.85;;;22.40;58.60;;;;;;4972444;28;20201;-72
2023/07/23 05:11:04;;;;;;;2.00;1.88;;;22.40;58.60;;;;;;4970468;28;20193;-71
2023/07/23 05:13:32;;;;;;;2.13;1.92;;;22.40;58.60;;;;;;4978759;28;20252;-72
2023/07/23 05:16:00;;;;;;;2.15;1.95;;;22.40;58.60;;;;;;4985913;28;20215;-71
2023/07/23 05:18:26;;;;;;;2.15;1.95;;;22.40;58.60;;;;;;4993662;28;20188;-72
2023/07/23 05:20:53;;;;;;;2.00;1.77;;;22.40;58.60;;;;;;4987021;28;20207;-72
2023/07/23 05:23:19;;;;;;;2.00;1.90;;;22.40;58.60;;;;;;4977057;28;20215;-71
2023/07/23 05:25:45;;;;;;;2.30;2.10;;;22.40;58.70;;;;;;4988886;28;20188;-71
2023/07/23 05:28:11;;;;;;;2.08;1.98;;;22.40;58.70;;;;;;4986824;28;20192;-72
2023/07/23 05:30:38;;;;;;;1.80;1.70;;;22.40;58.70;;;;;;4970929;28;20201;-71
2023/07/23 05:33:04;;;;;;;2.40;1.80;;;22.30;58.70;;;;;;4982433;28;20188;-71
2023/07/23 05:35:30;;;;;;;2.10;2.00;;;22.40;58.80;;;;;;4978919;28;20213;-71
2023/07/23 05:37:56;;;;;;;2.25;2.08;;;22.40;58.80;;;;;;4984881;28;20215;-71
2023/07/23 05:40:22;;;;;;;2.30;2.10;;;22.30;58.80;;;;;;4990912;28;20211;-71
2023/07/23 05:42:48;;;;;;;2.13;1.80;;;22.30;58.80;;;;;;4987860;28;20681;-71
2023/07/23 05:45:13;;;;;;;2.15;2.05;;;22.30;58.80;;;;;;4974765;28;20221;-71
2023/07/23 05:47:39;;;;;;;2.20;2.00;;;22.30;58.80;;;;;;4994452;28;20192;-71
2023/07/23 05:50:06;;;;;;;2.20;2.00;;;22.40;58.80;;;;;;4997531;28;20195;-71
2023/07/23 05:52:31;;;;;;;2.13;2.03;;;22.40;58.80;;;;;;5006174;28;20176;-72
2023/07/23 05:54:57;;;;;;;2.20;2.00;;;22.30;58.80;;;;;;4996656;28;20234;-71
2023/07/23 05:57:23;;;;;;;1.92;1.83;;;22.40;58.80;;;;;;4986051;28;20189;-71
2023/07/23 05:59:49;;;;;;;1.70;1.60;;;22.30;58.80;;;;;;4978129;28;20238;-71
2023/07/23 06:02:15;;;;;;;2.25;2.05;;;22.40;58.80;;;;;;4985221;28;20686;-71
2023/07/23 06:04:41;;;;;;;2.47;2.28;;;22.30;58.80;;;;;;4976616;28;20204;-72
2023/07/23 06:07:07;;;;;;;2.33;2.05;;;22.30;58.80;;;;;;4977226;28;20195;-71
2023/07/23 06:09:33;;;;;;;1.83;1.70;;;22.40;59.00;;;;;;4977555;28;20562;-72
2023/07/23 06:11:59;;;;;;;2.47;2.28;;;22.30;58.80;;;;;;4985217;28;20191;-72
2023/07/23 06:14:27;;;;;;;2.47;2.17;;;22.40;59.00;;;;;;4992637;28;20460;-72
2023/07/23 06:16:53;;;;;;;2.03;1.92;;;22.30;59.00;;;;;;5002597;28;20211;-71
2023/07/23 06:19:19;;;;;;;1.75;1.65;;;22.40;59.00;;;;;;4984926;28;20189;-72
2023/07/23 06:21:45;;;;;;;1.88;1.77;;;22.40;59.10;;;;;;4977080;28;20212;-71
2023/07/23 06:24:11;;;;;;;2.00;1.90;;;22.40;59.10;;;;;;4985360;28;20221;-71
2023/07/23 06:26:37;;;;;;;2.38;2.17;;;22.40;59.10;;;;;;4976722;28;20189;-71
2023/07/23 06:29:05;;;;;;;2.40;2.20;;;22.30;59.00;;;;;;4991455;28;20203;-71
2023/07/23 06:31:31;;;;;;;1.85;1.75;;;22.40;59.10;;;;;;4977006;28;20185;-71
2023/07/23 06:33:57;;;;;;;2.20;2.00;;;22.30;59.00;;;;;;4980378;28;20214;-71
2023/07/23 06:36:23;;;;;;;2.25;2.03;;;22.30;59.10;;;;;;4986525;28;20192;-71
2023/07/23 06:38:49;;;;;;;2.00;1.80;;;22.30;59.10;;;;;;4991555;28;20228;-70
2023/07/23 06:41:15;;;;;;;1.90;1.80;;;22.30;59.10;;;;;;4985354;28;20204;-71
2023/07/23 06:43:40;;;;;;;1.73;1.60;;;22.30;59.10;;;;;;4987921;28;20212;-71
2023/07/23 06:46:06;;;;;;;1.75;1.65;;;22.30;59.10;;;;;;4978154;28;20200;-71
2023/07/23 06:48:32;;;;;;;2.17;1.98;;;22.30;59.10;;;;;;4986604;28;20191;-71
2023/07/23 06:50:58;;;;;;;2.63;2.00;;;22.30;59.10;;;;;;4996401;28;20195;-71
2023/07/23 06:53:24;;;;;;;1.90;1.70;;;22.30;59.10;;;;;;4990230;28;20239;-71
2023/07/23 06:56:02;;;;;;;1.80;1.70;;;22.30;59.10;;;;;;4985993;28;20217;-71
2023/07/23 06:58:30;;;;;;;1.90;1.80;;;22.30;59.10;;;;;;4991416;28;20188;-72
2023/07/23 07:00:57;;;;;;;1.75;1.65;;;22.30;59.10;;;;;;4981779;28;20180;-71
2023/07/23 07:03:24;;;;;;;2.05;1.95;;;22.30;59.10;;;;;;4977605;28;20229;-71
2023/07/23 07:05:51;;;;;;;2.20;2.00;;;22.40;59.20;;;;;;4986724;28;20281;-71
2023/07/23 07:08:17;;;;;;;2.00;1.90;;;22.40;59.20;;;;;;4983727;28;20189;-71
2023/07/23 07:10:43;;;;;;;1.73;1.63;;;22.40;59.20;;;;;;4987212;28;20198;-71
2023/07/23 07:13:08;;;;;;;1.92;1.63;;;22.40;59.30;;;;;;4972993;28;20201;-72
2023/07/23 07:15:34;;;;;;;1.90;1.80;;;22.30;59.20;;;;;;4978159;28;20250;-71
2023/07/23 07:18:00;;;;;;;1.70;1.60;;;22.30;59.20;;;;;;4987118;28;20184;-71
2023/07/23 07:20:26;;;;;;;1.75;1.65;;;22.40;59.30;;;;;;4987657;28;20694;-71
2023/07/23 07:22:52;;;;;;;1.60;1.50;;;22.30;59.20;;;;;;4990603;28;20184;-71
2023/07/23 07:25:18;;;;;;;1.80;1.70;;;22.40;59.20;;;;;;4976597;28;20220;-71
2023/07/23 07:27:43;;;;;;;1.77;1.65;;;22.40;59.30;;;;;;4995288;28;20246;-71
2023/07/23 07:30:09;;;;;;;2.33;2.13;;;22.40;59.30;;;;;;4973498;28;20216;-71
2023/07/23 07:32:35;;;;;;;1.77;1.67;;;22.40;59.30;;;;;;4976057;28;20188;-72
2023/07/23 07:35:02;;;;;;;1.90;1.80;;;22.40;59.30;;;;;;4989111;28;20639;-71
2023/07/23 07:37:28;;;;;;;1.85;1.65;;;22.40;59.20;;;;;;4991703;28;20673;-71
2023/07/23 07:39:54;;;;;;;1.83;1.70;;;22.40;59.20;;;;;;4987977;28;20248;-72
2023/07/23 07:42:20;;;;;;;1.95;1.83;;;22.40;59.30;;;;;;4981164;28;20187;-71
2023/07/23 07:44:46;;;;;;;1.73;1.63;;;22.30;59.30;;;;;;4980582;28;20359;-71
2023/07/23 07:47:12;;;;;;;2.05;1.92;;;22.40;59.30;;;;;;4989356;28;20654;-71
2023/07/23 07:49:39;;;;;;;2.25;2.00;;;22.40;59.30;;;;;;4995148;28;20227;-71
2023/07/23 07:52:05;;;;;;;1.67;1.58;;;22.40;59.40;;;;;;4980764;28;20566;-71
2023/07/23 07:54:35;;;;;;;1.90;1.80;;;22.40;59.40;;;;;;4992317;28;20225;-71
2023/07/23 07:57:02;;;;;;;1.92;1.83;;;22.40;59.40;;;;;;4994516;28;20192;-71
2023/07/23 07:59:29;;;;;;;2.03;1.85;;;22.40;59.30;;;;;;4986967;28;20191;-70
2023/07/23 08:01:56;;;;;;;1.80;1.70;;;22.40;59.50;;;;;;4981050;28;20192;-70
2023/07/23 08:04:27;;;;;;;1.73;1.63;;;22.40;59.40;;;;;;4982920;28;20219;-70
2023/07/23 08:06:53;;;;;;;1.90;1.80;;;22.40;59.40;;;;;;4987692;28;20188;-73
2023/07/23 08:09:23;;;;;;;2.50;1.90;;;22.40;59.30;;;;;;4986542;28;20192;-72
2023/07/23 08:11:49;;;;;;;2.20;2.00;;;22.50;59.30;;;;;;4994000;28;20196;-72
2023/07/23 08:14:19;;;;;;;2.22;1.70;;;22.50;59.20;;;;;;4978730;28;20225;-72
2023/07/23 08:16:45;;;;;;;2.55;1.90;;;22.50;59.20;;;;;;4975182;28;20177;-72
2023/07/23 08:19:11;;;;;;;2.00;1.90;;;22.50;59.20;;;;;;4983107;28;20193;-72
2023/07/23 08:21:37;;;;;;;2.08;1.98;;;22.50;59.20;;;;;;4989828;28;20214;-74
2023/07/23 08:24:06;;;;;;;2.17;1.98;;;22.50;59.20;;;;;;4991147;28;20228;-73
2023/07/23 08:26:38;;;;;;;1.75;1.65;;;22.50;59.20;;;;;;5007209;28;20196;-70
2023/07/23 08:29:08;;;;;;;1.90;1.70;;;22.60;59.20;;;;;;4996965;28;20714;-69
2023/07/23 08:31:35;;;;;;;1.80;1.70;;;22.60;59.20;;;;;;4991952;28;20196;-70
2023/07/23 08:34:04;;;;;;;1.58;1.48;;;22.60;59.20;;;;;;4974276;28;20225;-71
2023/07/23 08:36:34;;;;;;;1.83;1.73;;;22.60;59.20;;;;;;4982546;28;20191;-70
2023/07/23 08:39:00;;;;;;;2.35;2.15;;;22.60;59.20;;;;;;4995411;28;20273;-70
2023/07/23 08:42:07;;;;;;;2.17;1.73;;;22.60;59.20;;;;;;4988105;28;20196;-71
2023/07/23 08:44:54;;;;;;;1.80;1.70;;;22.60;59.20;;;;;;4985065;28;20267;-70
2023/07/23 08:47:22;;;;;;;2.22;1.92;;;22.70;59.20;;;;;;4993563;28;20283;-70
2023/07/23 08:49:50;;;;;;;2.20;1.80;;;22.70;59.20;;;;;;4963291;28;20194;-71
2023/07/23 08:52:18;;;;;;;2.80;2.03;;;22.70;59.20;;;;;;4985716;28;20206;-70
2023/07/23 08:54:44;;;;;;;1.83;1.73;;;22.70;59.20;;;;;;4987294;28;20213;-70
2023/07/23 08:57:10;;;;;;;1.83;1.73;;;22.70;59.20;;;;;;4989726;28;20189;-70
2023/07/23 08:59:40;;;;;;;1.80;1.70;;;22.70;59.20;;;;;;4988386;28;20259;-70
2023/07/23 09:02:13;;;;;;;1.90;1.80;;;22.70;59.10;;;;;;4969656;28;20185;-70
2023/07/23 09:04:39;;;;;;;2.80;1.90;;;22.70;59.10;;;;;;4967751;28;20213;-70
2023/07/23 09:07:10;;;;;;;1.92;1.83;;;22.80;59.30;;;;;;4979119;28;20197;-70
2023/07/23 09:09:37;;;;;;;1.60;1.50;;;22.80;59.20;;;;;;4990483;28;20201;-70
2023/07/23 09:12:03;;;;;;;1.70;1.60;;;22.70;59.10;;;;;;4991126;28;20212;-70
2023/07/23 09:14:29;;;;;;;1.77;1.67;;;22.70;59.20;;;;;;4971062;28;20235;-70
2023/07/23 09:16:56;;;;;;;2.10;1.90;;;22.80;59.20;;;;;;4998302;28;20188;-70
2023/07/23 09:19:26;;;;;;;2.17;1.77;;;22.70;59.10;;;;;;5005852;28;20219;-70
2023/07/23 09:21:59;;;;;;;2.15;1.75;;;22.70;59.20;;;;;;4978003;28;20228;-70
2023/07/23 09:24:34;;;;;;;1.88;1.77;;;22.70;59.20;;;;;;4988602;28;20231;-74
2023/07/23 09:27:02;;;;;;;1.80;1.70;;;22.70;59.20;;;;;;4979843;28;20201;-72
2023/07/23 09:29:37;;;;;;;1.73;1.63;;;22.70;59.20;;;;;;4988548;28;20211;-73
2023/07/23 09:32:26;;;;;;;1.92;1.83;;;22.70;59.20;;;;;;4993430;28;20268;-70
2023/07/23 09:34:58;;;;;;;1.60;1.50;;;22.70;59.20;;;;;;4986552;28;20308;-72
2023/07/23 09:37:27;;;;;;;1.75;1.65;;;22.70;59.30;;;;;;4983434;28;20224;-70
2023/07/23 09:39:57;;;;;;;2.00;1.80;;;22.70;59.30;;;;;;4971102;28;20630;-70
2023/07/23 09:42:30;;;;;;;1.88;1.77;;;22.70;59.30;;;;;;4994384;28;20192;-73
2023/07/23 09:45:01;;;;;;;2.03;1.83;;;22.70;59.30;;;;;;4990653;28;20223;-70
2023/07/23 09:47:28;;;;;;;2.15;1.98;;;22.80;59.40;;;;;;5009019;28;20204;-71
2023/07/23 09:49:54;;;;;;;2.35;2.15;;;22.80;59.40;;;;;;4987176;28;20277;-69
2023/07/23 09:52:33;;;;;;;1.55;1.45;;;22.80;59.30;;;;;;4977103;28;20196;-70
2023/07/23 09:55:01;;;;;;;2.00;1.90;;;22.80;59.30;;;;;;4982892;28;20213;-68
2023/07/23 09:57:32;;;;;;;2.20;2.00;;;22.80;59.40;;;;;;4981607;28;20274;-70
2023/07/23 10:00:00;;;;;;;1.90;1.80;;;22.80;59.40;;;;;;4971417;28;20261;-73
2023/07/23 10:02:29;;;;;;;2.20;2.00;;;22.80;59.50;;;;;;4978696;28;20196;-72
2023/07/23 10:04:58;;;;;;;2.05;1.95;;;22.80;59.40;;;;;;4992848;28;20238;-73
2023/07/23 10:07:25;;;;;;;2.03;1.90;;;22.80;59.40;;;;;;4985893;28;20197;-70
2023/07/23 10:09:54;;;;;;;1.92;1.83;;;22.80;59.40;;;;;;4989171;28;20184;-70
2023/07/23 10:12:22;;;;;;;1.85;1.75;;;22.80;59.40;;;;;;4981932;28;20189;-69
2023/07/23 10:14:48;;;;;;;1.90;1.80;;;22.80;59.50;;;;;;4978226;28;20248;-71
2023/07/23 10:17:15;;;;;;;1.75;1.65;;;22.80;59.50;;;;;;4993228;28;20199;-70
2023/07/23 10:19:42;;;;;;;2.05;1.95;;;22.80;59.50;;;;;;4993295;28;20628;-70
2023/07/23 10:22:09;;;;;;;2.30;2.10;;;22.80;59.50;;;;;;4968977;28;20193;-73
2023/07/23 10:24:40;;;;;;;1.98;1.88;;;22.80;59.50;;;;;;4970856;28;20217;-73
2023/07/23 10:27:14;;;;;;;2.10;2.00;;;22.80;59.50;;;;;;5003763;28;20654;-70
2023/07/23 10:30:20;;;;;;;2.40;2.20;;;22.80;59.50;;;;;;4989809;28;20191;-73
2023/07/23 10:33:10;;;;;;;2.60;2.40;;;22.80;59.40;;;;;;4992165;28;20197;-73
2023/07/23 10:36:02;;;;;;;2.67;2.47;;;22.80;59.50;;;;;;4959709;28;20225;-72
2023/07/23 10:38:35;;;;;;;3.42;2.47;;;22.90;59.60;;;;;;4980723;28;20192;-70
2023/07/23 10:41:03;;;;;;;2.47;2.28;;;22.90;59.60;;;;;;4985824;28;20192;-70
2023/07/23 10:43:48;;;;;;;2.67;2.38;;;22.90;59.60;;;;;;4993076;28;20226;-70
2023/07/23 10:46:19;;;;;;;2.47;2.28;;;22.80;59.50;;;;;;4997803;28;20608;-71
2023/07/23 10:48:50;;;;;;;2.35;2.15;;;22.80;59.50;;;;;;5028440;28;20342;-70
2023/07/23 10:51:22;;;;;;;2.25;2.05;;;22.90;59.60;;;;;;4996748;28;20192;-70
2023/07/23 10:54:05;;;;;;;2.38;2.17;;;22.90;59.60;;;;;;4996483;28;20291;-70
2023/07/23 10:56:36;;;;;;;2.47;2.28;;;22.80;59.60;;;;;;4996115;28;20191;-71
2023/07/23 10:59:13;;;;;;;2.20;1.95;;;22.90;59.60;;;;;;4988045;28;20179;-70
2023/07/23 11:01:45;;;;;;;2.17;2.03;;;22.80;59.60;;;;;;4996015;28;20188;-71
2023/07/23 11:04:15;;;;;;;2.70;2.50;;;22.90;59.70;;;;;;4982790;28;20205;-70
2023/07/23 11:07:07;;;;;;;2.47;2.28;;;22.90;59.60;;;;;;4987779;28;20581;-70
2023/07/23 11:09:37;;;;;;;2.92;2.38;;;22.90;59.60;;;;;;4972580;28;20193;-70
2023/07/23 11:12:09;;;;;;;2.50;2.30;;;22.90;59.60;;;;;;4976797;28;20670;-69
2023/07/23 11:14:38;;;;;;;2.33;2.10;;;22.90;59.60;;;;;;4990812;28;20213;-70
2023/07/23 11:17:07;;;;;;;2.95;2.60;;;22.80;59.60;;;;;;4984373;28;20185;-70
2023/07/23 11:19:33;;;;;;;3.40;2.53;;;22.90;59.70;;;;;;5000521;28;20596;-70
2023/07/23 11:22:03;;;;;;;2.50;2.30;;;22.90;59.70;;;;;;4983662;28;20189;-70
2023/07/23 11:24:32;;;;;;;2.40;2.20;;;22.90;59.70;;;;;;5000595;28;20282;-72
2023/07/23 11:27:06;;;;;;;2.65;2.45;;;22.90;59.60;;;;;;4975177;28;20197;-72
2023/07/23 11:29:32;;;;;;;3.13;2.00;;;22.90;59.70;;;;;;5000127;28;20215;-70
2023/07/23 11:32:05;;;;;;;2.53;2.33;;;22.90;59.70;;;;;;4985243;28;20193;-72
2023/07/23 11:34:32;;;;;;;3.08;2.60;;;22.90;59.80;;;;;;4975926;28;20271;-72
2023/07/23 11:36:59;;;;;;;3.65;2.55;;;22.90;59.70;;;;;;4978833;28;20188;-69
2023/07/23 11:39:34;;;;;;;3.00;2.40;;;22.90;59.80;;;;;;4995544;28;20207;-69
2023/07/23 11:42:00;;;;;;;2.65;2.22;;;22.90;59.70;;;;;;4987486;28;20688;-70
2023/07/23 11:44:29;;;;;;;2.40;2.20;;;22.90;59.80;;;;;;4981178;28;20677;-70
2023/07/23 11:47:03;;;;;;;2.88;2.60;;;22.90;59.70;;;;;;4998593;28;20192;-68
2023/07/23 11:49:33;;;;;;;2.45;2.25;;;22.90;59.80;;;;;;4991290;28;20257;-72
2023/07/23 11:51:59;;;;;;;2.60;2.40;;;22.90;59.70;;;;;;4985534;28;20196;-72
2023/07/23 11:54:25;;;;;;;2.33;2.13;;;22.90;59.70;;;;;;4999901;28;20225;-72
2023/07/23 11:56:51;;;;;;;3.08;2.75;;;22.90;59.80;;;;;;4967420;28;20186;-70
2023/07/23 12:04:55;;;;;;;2.50;2.30;;;22.90;59.70;;;;;;5105002;27;20559;-67
2023/07/23 12:07:21;;;;;;;2.72;2.50;;;22.90;59.70;;;;;;5113579;28;20208;-67
2023/07/23 12:09:47;;;;;;;2.80;2.60;;;22.90;59.60;;;;;;5088415;28;20314;-68
2023/07/23 12:15:03;;;;;;;3.15;2.80;;;22.90;59.60;;;;;;5042903;28;20605;-69
2023/07/23 12:17:28;;;;;;;2.97;2.70;;;22.90;59.60;;;;;;5031732;28;20566;-68
2023/07/23 12:19:54;;;;;;;2.58;2.38;;;22.90;59.60;;;;;;5061390;28;20187;-69
2023/07/23 12:22:20;;;;;;;3.47;2.95;;;22.90;59.50;;;;;;5042057;28;20194;-69
2023/07/23 12:24:46;;;;;;;3.25;2.95;;;22.90;59.50;;;;;;5039120;28;20227;-71
2023/07/23 12:27:12;;;;;;;2.65;2.45;;;22.90;59.50;;;;;;5029673;28;20195;-70
2023/07/23 12:29:42;;;;;;;2.55;2.35;;;22.90;59.50;;;;;;5039508;28;20191;-71
2023/07/23 12:32:17;;;;;;;3.05;2.70;;;22.90;59.40;;;;;;5042762;28;20179;-71
2023/07/23 12:34:47;;;;;;;2.70;2.50;;;22.90;59.40;;;;;;5036759;28;20218;-70
2023/07/23 12:37:15;;;;;;;2.85;2.60;;;22.90;59.30;;;;;;5056918;28;20196;-72
2023/07/23 12:39:42;;;;;;;3.60;3.00;;;22.90;59.40;;;;;;5033843;28;20188;-70
2023/07/23 12:42:08;;;;;;;3.63;2.67;;;22.90;59.30;;;;;;5032888;28;20285;-70
2023/07/23 12:44:34;;;;;;;3.15;2.85;;;22.90;59.30;;;;;;5035803;28;20214;-71
2023/07/23 12:47:00;;;;;;;3.45;3.15;;;23.00;59.30;;;;;;5034451;28;20191;-71
2023/07/23 12:49:26;;;;;;;3.45;3.15;;;22.90;59.30;;;;;;5026527;28;20184;-71
2023/07/23 12:51:52;;;;;;;3.15;2.85;;;22.90;59.20;;;;;;5043066;28;20201;-71
2023/07/23 12:54:18;;;;;;;3.70;2.80;;;23.00;59.40;;;;;;5040285;28;20195;-70
2023/07/23 12:56:43;;;;;;;3.40;3.03;;;22.90;59.20;;;;;;5036708;28;20191;-70
2023/07/23 12:59:09;;;;;;;3.15;2.85;;;22.90;59.10;;;;;;5041555;28;20187;-71